createdAt,value
2018-02-03T00:00:52.431Z,32.87
2018-02-03T00:03:19.991Z,31.40
2018-02-03T00:05:47.551Z,32.73
2018-02-03T00:08:15.111Z,30.00
2018-02-03T00:10:42.829Z,31.40
2018-02-03T00:13:10.332Z,31.87
2018-02-03T00:15:37.788Z,35.07
2018-02-03T00:18:06.208Z,32.03
2018-02-03T00:20:33.664Z,31.90
2018-02-03T00:23:01.120Z,32.80
2018-02-03T00:25:28.743Z,33.03
2018-02-03T00:27:56.304Z,29.70
2018-02-03T00:30:24.270Z,34.53
2018-02-03T00:32:52.036Z,34.47
2018-02-03T00:35:19.527Z,35.90
2018-02-03T00:37:46.991Z,35.37
2018-02-03T00:40:14.612Z,30.07
2018-02-03T00:42:42.173Z,33.20
2018-02-03T00:45:09.730Z,35.97
2018-02-03T00:47:37.290Z,32.60
2018-02-03T00:50:04.850Z,35.50
2018-02-03T00:52:32.409Z,33.63
2018-02-03T00:54:59.836Z,35.30
2018-02-03T00:57:27.264Z,30.23
2018-02-03T00:59:54.779Z,35.23
2018-02-03T01:02:22.339Z,29.67
2018-02-03T01:04:49.796Z,39.33
2018-02-03T01:07:17.355Z,35.17
2018-02-03T01:09:44.915Z,38.33
2018-02-03T01:12:12.348Z,37.50
2018-02-03T01:14:40.853Z,37.70
2018-02-03T01:17:08.347Z,41.97
2018-02-03T01:19:35.870Z,45.13
2018-02-03T01:22:03.429Z,45.57
2018-02-03T01:24:30.849Z,47.00
2018-02-03T01:26:58.548Z,46.97
2018-02-03T01:29:26.108Z,44.27
2018-02-03T01:31:53.667Z,43.30
2018-02-03T01:34:21.125Z,45.90
2018-02-03T01:36:48.684Z,44.30
2018-02-03T01:39:16.189Z,44.03
2018-02-03T01:41:43.699Z,39.67
2018-02-03T01:44:11.196Z,38.87
2018-02-03T01:46:38.716Z,46.07
2018-02-03T01:49:06.268Z,45.57
2018-02-03T01:51:33.835Z,39.93
2018-02-03T01:54:01.328Z,51.03
2018-02-03T01:56:28.888Z,42.50
2018-02-03T01:58:56.447Z,46.10
2018-02-03T02:01:23.868Z,39.60
2018-02-03T02:03:51.428Z,44.90
2018-02-03T02:06:18.873Z,36.43
2018-02-03T02:08:46.502Z,38.23
2018-02-03T02:11:13.901Z,37.90
2018-02-03T02:13:41.871Z,42.57
2018-02-03T02:16:09.429Z,40.20
2018-02-03T02:18:36.988Z,38.70
2018-02-03T02:21:04.548Z,42.07
2018-02-03T02:23:32.108Z,41.13
2018-02-03T02:25:59.667Z,43.70
2018-02-03T02:28:27.227Z,47.40
2018-02-03T02:30:54.667Z,41.87
2018-02-03T02:33:22.140Z,42.80
2018-02-03T02:35:49.708Z,49.87
2018-02-03T02:38:17.260Z,46.33
2018-02-03T02:40:44.766Z,47.30
2018-02-03T02:43:12.276Z,45.77
2018-02-03T02:45:39.732Z,48.20
2018-02-03T02:48:07.229Z,44.13
2018-02-03T02:50:34.749Z,42.90
2018-02-03T02:53:02.311Z,43.33
2018-02-03T02:55:29.869Z,43.03
2018-02-03T02:57:57.427Z,48.17
2018-02-03T03:00:24.885Z,38.27
2018-02-03T03:02:52.446Z,43.40
2018-02-03T03:05:20.004Z,47.87
2018-02-03T03:07:47.461Z,44.60
2018-02-03T03:10:14.963Z,44.80
2018-02-03T03:12:42.404Z,41.73
2018-02-03T03:15:09.822Z,40.90
2018-02-03T03:17:37.391Z,43.03
2018-02-03T03:20:05.155Z,42.03
2018-02-03T03:22:32.648Z,41.93
2018-02-03T03:25:00.172Z,46.40
2018-02-03T03:27:27.731Z,51.07
2018-02-03T03:29:55.291Z,43.33
2018-02-03T03:32:23.057Z,41.57
2018-02-03T03:34:50.547Z,46.20
2018-02-03T03:37:18.004Z,39.73
2018-02-03T03:39:45.443Z,42.70
2018-02-03T03:42:12.920Z,38.80
2018-02-03T03:44:40.442Z,37.47
2018-02-03T03:47:07.879Z,39.57
2018-02-03T03:49:35.459Z,48.27
2018-02-03T03:52:03.530Z,43.60
2018-02-03T03:54:31.024Z,45.03
2018-02-03T03:56:58.546Z,39.03
2018-02-03T03:59:26.107Z,41.23
2018-02-03T04:01:53.666Z,42.30
2018-02-03T04:04:21.081Z,45.27
2018-02-03T04:06:48.681Z,41.87
2018-02-03T04:09:16.242Z,39.60
2018-02-03T04:11:44.006Z,44.30
2018-02-03T04:14:11.565Z,46.53
2018-02-03T04:16:39.060Z,42.73
2018-02-03T04:19:06.582Z,42.97
2018-02-03T04:21:34.141Z,42.63
2018-02-03T04:24:01.905Z,39.80
2018-02-03T04:26:29.464Z,39.93
2018-02-03T04:28:56.872Z,45.00
2018-02-03T04:31:24.379Z,47.60
2018-02-03T04:33:51.938Z,46.27
2018-02-03T04:36:19.497Z,46.53
2018-02-03T04:38:47.158Z,48.07
2018-02-03T04:41:14.719Z,47.13
2018-02-03T04:43:42.279Z,44.20
2018-02-03T04:46:09.773Z,42.20
2018-02-03T04:48:37.294Z,44.97
2018-02-03T04:51:04.854Z,37.60
2018-02-03T04:53:32.413Z,36.73
2018-02-03T04:55:59.848Z,42.20
2018-02-03T04:58:27.336Z,39.27
2018-02-03T05:00:54.834Z,44.80
2018-02-03T05:03:22.446Z,33.07
2018-02-03T05:05:49.940Z,22.70
2018-02-03T05:08:17.463Z,28.37
2018-02-03T05:10:45.022Z,29.30
2018-02-03T05:13:12.583Z,34.10
2018-02-03T05:15:40.078Z,30.60
2018-02-03T05:18:07.598Z,33.20
2018-02-03T05:20:35.012Z,34.70
2018-02-03T05:23:02.448Z,34.27
2018-02-03T05:25:29.969Z,35.13
2018-02-03T05:27:57.571Z,31.10
2018-02-03T05:30:25.089Z,31.33
2018-02-03T05:32:52.647Z,31.30
2018-02-03T05:35:20.616Z,29.40
2018-02-03T05:37:48.176Z,32.50
2018-02-03T05:40:15.635Z,25.87
2018-02-03T05:42:43.085Z,29.13
2018-02-03T05:45:13.106Z,30.10
2018-02-03T05:47:40.667Z,31.70
2018-02-03T05:50:08.226Z,28.93
2018-02-03T05:52:35.721Z,29.10
2018-02-03T05:55:03.177Z,31.20
2018-02-03T05:57:30.735Z,29.47
2018-02-03T05:59:58.259Z,27.93
2018-02-03T06:02:25.826Z,28.50
2018-02-03T06:04:53.481Z,31.63
2018-02-03T06:07:21.040Z,29.20
2018-02-03T06:09:48.599Z,30.40
2018-02-03T06:12:16.091Z,28.70
2018-02-03T06:14:43.646Z,31.50
2018-02-03T06:17:11.112Z,29.37
2018-02-03T06:19:38.567Z,26.63
2018-02-03T06:22:06.090Z,33.57
2018-02-03T06:24:33.649Z,30.00
2018-02-03T06:27:01.207Z,29.30
2018-02-03T06:29:28.771Z,27.93
2018-02-03T06:31:56.328Z,34.63
2018-02-03T06:34:23.821Z,32.93
2018-02-03T06:36:51.343Z,27.77
2018-02-03T06:39:18.904Z,32.20
2018-02-03T06:41:46.565Z,25.53
2018-02-03T06:44:14.060Z,28.27
2018-02-03T06:46:41.581Z,29.93
2018-02-03T06:49:09.140Z,25.83
2018-02-03T06:51:36.637Z,25.80
2018-02-03T06:54:04.040Z,23.70
2018-02-03T06:56:31.616Z,28.83
2018-02-03T06:58:59.175Z,27.00
2018-02-03T07:01:26.733Z,23.73
2018-02-03T07:03:54.291Z,23.80
2018-02-03T07:06:21.851Z,20.57
2018-02-03T07:08:49.411Z,22.40
2018-02-03T07:11:20.861Z,23.20
2018-02-03T07:13:48.423Z,20.63
2018-02-03T07:16:15.916Z,22.27
2018-02-03T07:18:43.356Z,21.37
2018-02-03T07:21:10.897Z,21.73
2018-02-03T07:23:38.296Z,22.90
2018-02-03T07:26:05.911Z,25.83
2018-02-03T07:28:33.323Z,28.87
2018-02-03T07:31:00.842Z,28.27
2018-02-03T07:33:28.441Z,26.17
2018-02-03T07:35:55.876Z,25.60
2018-02-03T07:38:23.401Z,27.20
2018-02-03T07:40:51.064Z,29.30
2018-02-03T07:43:18.560Z,35.93
2018-02-03T07:45:46.086Z,26.63
2018-02-03T07:48:13.645Z,30.07
2018-02-03T07:50:41.131Z,29.67
2018-02-03T07:53:08.656Z,32.10
2018-02-03T07:55:36.215Z,31.50
2018-02-03T07:58:03.775Z,27.27
2018-02-03T08:00:31.336Z,30.47
2018-02-03T08:02:58.800Z,31.20
2018-02-03T08:05:26.351Z,25.17
2018-02-03T08:07:53.845Z,29.33
2018-02-03T08:10:21.367Z,22.13
2018-02-03T08:12:48.784Z,28.30
2018-02-03T08:15:16.385Z,26.57
2018-02-03T08:17:44.046Z,24.23
2018-02-03T08:20:11.542Z,24.33
2018-02-03T08:22:39.062Z,28.37
2018-02-03T08:25:06.622Z,33.37
2018-02-03T08:27:34.081Z,23.90
2018-02-03T08:30:01.639Z,28.13
2018-02-03T08:32:29.132Z,29.60
2018-02-03T08:34:56.654Z,28.40
2018-02-03T08:37:24.216Z,22.10
2018-02-03T08:39:51.774Z,27.70
2018-02-03T08:42:19.639Z,24.90
2018-02-03T08:44:47.405Z,21.87
2018-02-03T08:47:14.899Z,24.27
2018-02-03T08:49:42.523Z,23.50
2018-02-03T08:52:10.082Z,13.77
2018-02-03T08:54:37.576Z,12.60
2018-02-03T08:57:05.204Z,15.03
2018-02-03T08:59:32.688Z,10.97
2018-02-03T09:02:00.218Z,11.07
2018-02-03T09:04:27.708Z,9.60
2018-02-03T09:06:55.147Z,10.57
2018-02-03T09:09:22.695Z,11.43
2018-02-03T09:11:56.223Z,15.80
2018-02-03T09:14:23.632Z,15.67
2018-02-03T09:16:51.209Z,14.20
2018-02-03T09:19:18.700Z,17.00
2018-02-03T09:21:46.325Z,20.63
2018-02-03T09:24:13.886Z,14.23
2018-02-03T09:26:41.316Z,16.57
2018-02-03T09:29:08.732Z,16.50
2018-02-03T09:31:36.256Z,13.20
2018-02-03T09:34:03.703Z,14.13
2018-02-03T09:36:31.274Z,12.50
2018-02-03T09:38:58.764Z,11.03
2018-02-03T09:41:26.223Z,10.40
2018-02-03T09:43:53.689Z,16.40
2018-02-03T09:46:21.204Z,15.47
2018-02-03T09:48:48.762Z,11.90
2018-02-03T09:51:16.261Z,13.80
2018-02-03T09:53:43.728Z,12.53
2018-02-03T09:56:11.238Z,15.23
2018-02-03T09:58:38.741Z,15.70
2018-02-03T10:01:06.252Z,13.70
2018-02-03T10:03:33.812Z,16.57
2018-02-03T10:06:01.304Z,15.10
2018-02-03T10:08:28.828Z,15.03
2018-02-03T10:10:56.300Z,12.93
2018-02-03T10:13:23.696Z,12.00
2018-02-03T10:15:51.199Z,8.90
2018-02-03T10:18:18.758Z,12.33
2018-02-03T10:20:47.240Z,11.70
2018-02-03T10:23:14.736Z,13.97
2018-02-03T10:25:42.231Z,12.43
2018-02-03T10:28:10.023Z,12.63
2018-02-03T10:30:37.478Z,10.80
2018-02-03T10:33:04.980Z,12.37
2018-02-03T10:35:32.421Z,11.43
2018-02-03T10:37:59.900Z,12.53
2018-02-03T10:40:27.409Z,13.50
2018-02-03T10:42:54.969Z,14.97
2018-02-03T10:45:22.415Z,15.70
2018-02-03T10:47:49.987Z,16.07
2018-02-03T10:50:17.547Z,14.23
2018-02-03T10:52:45.103Z,16.90
2018-02-03T10:55:12.626Z,15.37
2018-02-03T10:57:40.225Z,14.37
2018-02-03T11:00:07.830Z,17.70
2018-02-03T11:02:35.341Z,16.67
2018-02-03T11:05:02.808Z,15.43
2018-02-03T11:07:30.363Z,16.50
2018-02-03T11:09:57.916Z,19.30
2018-02-03T11:12:25.476Z,16.57
2018-02-03T11:14:53.036Z,16.17
2018-02-03T11:17:20.595Z,17.27
2018-02-03T11:19:48.090Z,20.53
2018-02-03T11:22:15.920Z,18.00
2018-02-03T11:24:43.349Z,16.70
2018-02-03T11:27:10.833Z,16.37
2018-02-03T11:29:38.392Z,16.97
2018-02-03T11:32:05.952Z,16.60
2018-02-03T11:34:33.408Z,17.80
2018-02-03T11:37:00.968Z,17.10
2018-02-03T11:39:28.364Z,16.60
2018-02-03T11:41:55.884Z,17.40
2018-02-03T11:44:23.444Z,19.00
2018-02-03T11:46:50.899Z,17.67
2018-02-03T11:49:18.391Z,18.60
2018-02-03T11:51:46.019Z,20.97
2018-02-03T11:54:13.421Z,22.63
2018-02-03T11:56:40.864Z,21.30
2018-02-03T11:59:08.424Z,18.87
2018-02-03T12:01:35.948Z,16.20
2018-02-03T12:04:03.507Z,16.80
2018-02-03T12:06:31.068Z,17.77
2018-02-03T12:08:58.560Z,15.23
2018-02-03T12:11:26.087Z,17.80
2018-02-03T12:13:53.542Z,19.23
2018-02-03T12:16:21.100Z,19.30
2018-02-03T12:18:48.659Z,18.57
2018-02-03T12:21:16.219Z,17.33
2018-02-03T12:23:43.649Z,18.23
2018-02-03T12:26:11.132Z,22.20
2018-02-03T12:28:38.650Z,18.90
2018-02-03T12:31:06.252Z,20.23
2018-02-03T12:33:33.811Z,18.63
2018-02-03T12:36:01.303Z,19.47
2018-02-03T12:38:28.732Z,19.47
2018-02-03T12:40:56.219Z,18.17
2018-02-03T12:43:23.742Z,18.77
2018-02-03T12:45:51.236Z,21.53
2018-02-03T12:48:18.758Z,20.90
2018-02-03T12:50:46.318Z,23.30
2018-02-03T12:53:13.877Z,23.27
2018-02-03T12:55:41.437Z,21.87
2018-02-03T12:58:08.996Z,27.20
2018-02-03T13:00:37.621Z,25.70
2018-02-03T13:03:05.083Z,21.80
2018-02-03T13:05:32.596Z,25.77
2018-02-03T13:08:00.155Z,22.17
2018-02-03T13:10:27.717Z,24.97
2018-02-03T13:12:55.274Z,21.77
2018-02-03T13:15:22.834Z,19.83
2018-02-03T13:17:50.393Z,22.43
2018-02-03T13:20:17.953Z,16.03
2018-02-03T13:22:45.511Z,17.67
2018-02-03T13:25:13.070Z,22.00
2018-02-03T13:27:40.634Z,19.03
2018-02-03T13:30:08.079Z,18.47
2018-02-03T13:32:35.604Z,18.93
2018-02-03T13:35:03.041Z,18.80
2018-02-03T13:37:30.562Z,20.53
2018-02-03T13:39:58.121Z,20.30
2018-02-03T13:42:25.573Z,17.60
2018-02-03T13:44:53.072Z,19.20
2018-02-03T13:47:20.594Z,19.93
2018-02-03T13:49:48.153Z,19.70
2018-02-03T13:52:15.715Z,19.07
2018-02-03T13:54:43.272Z,20.43
2018-02-03T13:57:10.832Z,22.37
2018-02-03T13:59:38.391Z,17.73
2018-02-03T14:02:05.953Z,16.63
2018-02-03T14:04:33.407Z,19.67
2018-02-03T14:07:00.900Z,21.03
2018-02-03T14:09:28.528Z,19.10
2018-02-03T14:11:56.086Z,22.50
2018-02-03T14:14:23.645Z,22.40
2018-02-03T14:16:51.205Z,22.50
2018-02-03T14:19:18.599Z,24.53
2018-02-03T14:21:46.051Z,19.60
2018-02-03T14:24:19.244Z,23.50
2018-02-03T14:26:46.701Z,20.30
2018-02-03T14:29:14.155Z,19.60
2018-02-03T14:31:41.580Z,22.07
2018-02-03T14:34:09.072Z,23.03
2018-02-03T14:36:36.698Z,22.90
2018-02-03T14:39:04.259Z,24.47
2018-02-03T14:41:31.817Z,22.30
2018-02-03T14:43:59.326Z,28.77
2018-02-03T14:46:26.845Z,20.93
2018-02-03T14:48:54.393Z,20.10
2018-02-03T14:51:21.955Z,15.90
2018-02-03T14:53:49.518Z,21.20
2018-02-03T14:56:17.071Z,14.83
2018-02-03T14:58:44.631Z,17.47
2018-02-03T15:01:12.189Z,16.87
2018-02-03T15:03:39.750Z,18.77
2018-02-03T15:06:07.309Z,15.13
2018-02-03T15:08:34.869Z,14.43
2018-02-03T15:11:02.264Z,14.77
2018-02-03T15:13:29.782Z,19.23
2018-02-03T15:15:57.342Z,21.60
2018-02-03T15:18:24.799Z,18.97
2018-02-03T15:20:52.244Z,17.60
2018-02-03T15:23:19.713Z,18.40
2018-02-03T15:25:47.272Z,17.60
2018-02-03T15:28:14.832Z,19.23
2018-02-03T15:30:42.391Z,19.57
2018-02-03T15:33:09.884Z,20.07
2018-02-03T15:35:37.408Z,18.40
2018-02-03T15:38:04.951Z,19.70
2018-02-03T15:40:32.526Z,17.50
2018-02-03T15:43:00.090Z,20.07
2018-02-03T15:45:27.588Z,21.00
2018-02-03T15:47:55.103Z,22.33
2018-02-03T15:50:22.662Z,22.83
2018-02-03T15:52:50.221Z,20.57
2018-02-03T15:55:17.781Z,19.90
2018-02-03T15:57:45.277Z,23.07
2018-02-03T16:00:12.797Z,23.30
2018-02-03T16:02:40.357Z,27.07
2018-02-03T16:05:07.916Z,23.90
2018-02-03T16:07:35.408Z,25.60
2018-02-03T16:10:02.933Z,18.33
2018-02-03T16:12:30.696Z,19.10
2018-02-03T16:14:58.257Z,20.80
2018-02-03T16:17:25.816Z,18.33
2018-02-03T16:19:53.376Z,17.50
2018-02-03T16:22:20.869Z,21.47
2018-02-03T16:24:48.596Z,20.23
2018-02-03T16:27:16.155Z,19.77
2018-02-03T16:29:43.715Z,17.50
2018-02-03T16:32:11.274Z,19.80
2018-02-03T16:34:38.835Z,22.47
2018-02-03T16:37:06.394Z,22.93
2018-02-03T16:39:33.954Z,20.00
2018-02-03T16:42:01.514Z,22.90
2018-02-03T16:44:29.072Z,17.67
2018-02-03T16:46:56.634Z,16.87
2018-02-03T16:49:24.081Z,17.33
2018-02-03T16:51:51.648Z,19.60
2018-02-03T16:54:19.157Z,19.53
2018-02-03T16:56:46.665Z,20.63
2018-02-03T16:59:14.223Z,16.57
2018-02-03T17:01:41.783Z,17.47
2018-02-03T17:04:09.276Z,20.13
2018-02-03T17:06:36.733Z,16.70
2018-02-03T17:09:04.257Z,18.47
2018-02-03T17:11:31.660Z,16.93
2018-02-03T17:13:59.171Z,16.80
2018-02-03T17:16:26.731Z,18.63
2018-02-03T17:18:54.290Z,19.13
2018-02-03T17:21:21.849Z,18.20
2018-02-03T17:23:49.409Z,20.73
2018-02-03T17:26:16.969Z,21.67
2018-02-03T17:28:44.528Z,22.33
2018-02-03T17:31:12.088Z,19.47
2018-02-03T17:33:39.647Z,19.00
2018-02-03T17:36:07.206Z,21.73
2018-02-03T17:38:40.539Z,16.67
2018-02-03T17:41:08.060Z,18.60
2018-02-03T17:43:35.619Z,19.13
2018-02-03T17:46:08.811Z,20.23
2018-02-03T17:48:36.369Z,18.77
2018-02-03T17:51:03.930Z,18.10
2018-02-03T17:53:31.488Z,21.43
2018-02-03T17:56:04.785Z,28.23
2018-02-03T17:58:32.342Z,21.03
2018-02-03T18:00:59.902Z,19.47
2018-02-03T18:03:27.494Z,21.50
2018-02-03T18:05:55.122Z,21.03
2018-02-03T18:08:22.580Z,21.83
2018-02-03T18:10:50.139Z,19.17
2018-02-03T18:13:17.836Z,17.30
2018-02-03T18:15:45.360Z,19.10
2018-02-03T18:18:12.863Z,18.30
2018-02-03T18:20:40.301Z,17.83
2018-02-03T18:23:07.780Z,18.03
2018-02-03T18:25:35.393Z,16.37
2018-02-03T18:28:02.953Z,20.10
2018-02-03T18:30:30.512Z,20.93
2018-02-03T18:32:58.277Z,22.13
2018-02-03T18:35:25.772Z,16.43
2018-02-03T18:37:53.293Z,20.10
2018-02-03T18:40:20.792Z,19.57
2018-02-03T18:42:48.309Z,17.10
2018-02-03T18:45:30.622Z,19.53
2018-02-03T18:47:58.109Z,20.23
2018-02-03T18:50:25.530Z,20.77
2018-02-03T18:52:53.088Z,21.53
2018-02-03T18:55:20.647Z,18.37
2018-02-03T18:57:48.051Z,18.70
2018-02-03T19:00:15.596Z,17.40
2018-02-03T19:02:43.172Z,17.57
2018-02-03T19:05:10.680Z,18.43
2018-02-03T19:07:38.342Z,19.73
2018-02-03T19:10:05.809Z,21.13
2018-02-03T19:12:33.358Z,17.03
2018-02-03T19:15:00.970Z,17.80
2018-02-03T19:17:28.477Z,18.27
2018-02-03T19:19:55.973Z,23.30
2018-02-03T19:22:23.495Z,20.33
2018-02-03T19:24:50.940Z,16.03
2018-02-03T19:27:18.407Z,15.00
2018-02-03T19:29:45.900Z,16.10
2018-02-03T19:32:13.326Z,12.70
2018-02-03T19:34:40.882Z,19.47
2018-02-03T19:37:08.452Z,16.30
2018-02-03T19:39:36.002Z,14.43
2018-02-03T19:42:03.662Z,16.97
2018-02-03T19:44:31.427Z,19.50
2018-02-03T19:46:58.916Z,13.20
2018-02-03T19:49:26.447Z,15.93
2018-02-03T19:51:53.949Z,15.00
2018-02-03T19:54:21.392Z,15.77
2018-02-03T19:56:48.814Z,15.07
2018-02-03T19:59:16.373Z,16.50
2018-02-03T20:01:43.932Z,15.77
2018-02-03T20:04:11.492Z,15.40
2018-02-03T20:06:38.984Z,18.80
2018-02-03T20:09:06.508Z,15.63
2018-02-03T20:11:34.277Z,16.83
2018-02-03T20:14:02.447Z,17.87
2018-02-03T20:16:30.007Z,15.90
2018-02-03T20:18:57.565Z,12.30
2018-02-03T20:21:25.126Z,13.80
2018-02-03T20:23:52.684Z,13.37
2018-02-03T20:26:20.247Z,14.10
2018-02-03T20:28:47.804Z,12.77
2018-02-03T20:31:15.411Z,15.50
2018-02-03T20:33:43.228Z,15.73
2018-02-03T20:36:10.789Z,16.43
2018-02-03T20:38:38.348Z,13.20
2018-02-03T20:41:05.907Z,13.27
2018-02-03T20:43:33.467Z,15.07
2018-02-03T20:46:01.028Z,15.07
2018-02-03T20:48:28.586Z,16.83
2018-02-03T20:50:56.020Z,12.97
2018-02-03T20:53:23.603Z,15.17
2018-02-03T20:55:51.162Z,14.90
2018-02-03T20:58:18.863Z,15.30
2018-02-03T21:00:46.383Z,14.07
2018-02-03T21:03:13.942Z,17.50
2018-02-03T21:05:41.501Z,18.70
2018-02-03T21:08:09.062Z,19.77
2018-02-03T21:10:36.461Z,20.33
2018-02-03T21:13:04.897Z,14.33
2018-02-03T21:15:32.456Z,16.77
2018-02-03T21:17:59.949Z,16.60
2018-02-03T21:20:27.472Z,16.90
2018-02-03T21:22:55.032Z,15.10
2018-02-03T21:25:22.591Z,19.40
2018-02-03T21:27:50.151Z,16.50
2018-02-03T21:30:17.710Z,16.03
2018-02-03T21:32:45.169Z,17.00
2018-02-03T21:35:12.727Z,18.60
2018-02-03T21:37:40.199Z,13.83
2018-02-03T21:40:07.744Z,17.47
2018-02-03T21:42:35.147Z,20.60
2018-02-03T21:45:02.557Z,17.03
2018-02-03T21:47:30.115Z,14.23
2018-02-03T21:49:57.576Z,15.77
2018-02-03T21:52:25.067Z,16.50
2018-02-03T21:54:52.588Z,15.07
2018-02-03T21:57:20.148Z,15.73
2018-02-03T21:59:47.654Z,14.03
2018-02-03T22:02:15.164Z,13.67
2018-02-03T22:04:42.675Z,16.00
2018-02-03T22:07:10.180Z,20.10
2018-02-03T22:09:37.671Z,14.47
2018-02-03T22:12:05.196Z,16.83
2018-02-03T22:14:32.756Z,15.47
2018-02-03T22:17:00.247Z,16.07
2018-02-03T22:19:27.773Z,18.00
2018-02-03T22:21:55.267Z,15.13
2018-02-03T22:24:22.789Z,14.83
2018-02-03T22:26:50.349Z,14.80
2018-02-03T22:29:17.908Z,19.80
2018-02-03T22:31:45.467Z,16.33
2018-02-03T22:34:13.027Z,14.43
2018-02-03T22:36:40.485Z,15.43
2018-02-03T22:39:07.976Z,15.90
2018-02-03T22:41:35.607Z,16.17
2018-02-03T22:44:03.213Z,17.43
2018-02-03T22:46:30.621Z,15.53
2018-02-03T22:48:58.287Z,14.03
2018-02-03T22:51:25.784Z,14.87
2018-02-03T22:53:53.194Z,14.87
2018-02-03T22:56:20.794Z,14.67
2018-02-03T22:58:48.187Z,13.30
2018-02-03T23:01:17.548Z,17.60
2018-02-03T23:03:45.072Z,16.87
2018-02-03T23:06:12.632Z,19.70
2018-02-03T23:08:40.190Z,19.23
2018-02-03T23:11:07.750Z,14.57
2018-02-03T23:13:35.311Z,15.60
2018-02-03T23:16:02.869Z,16.63
2018-02-03T23:18:30.380Z,17.67
2018-02-03T23:20:57.886Z,15.60
2018-02-03T23:23:25.445Z,13.80
2018-02-03T23:25:53.004Z,16.17
2018-02-03T23:28:20.564Z,18.40
2018-02-03T23:30:48.124Z,12.80
2018-02-03T23:33:15.682Z,14.40
2018-02-03T23:35:43.187Z,13.70
2018-02-03T23:38:10.904Z,16.70
2018-02-03T23:40:38.463Z,15.40
2018-02-03T23:43:05.869Z,21.00
2018-02-03T23:45:33.377Z,17.13
2018-02-03T23:48:00.790Z,15.37
2018-02-03T23:50:28.497Z,18.77
2018-02-03T23:52:55.953Z,15.60
2018-02-03T23:55:23.513Z,16.23
2018-02-03T23:57:51.073Z,14.13
